Time;durP1;ratioP1;P1;durP2;ratioP2;P2;SDS_P1;SDS_P2;PMS_P1;PMS_P2;Temp;Humidity;BMP_temperature;BMP_pressure;BME280_temperature;BME280_humidity;BME280_pressure;Samples;Min_cycle;Max_cycle;Signal;HPM_P1;HPM_P2
2022/06/11 00:01:55;;;;;;;5.70;4.30;;;19.80;8.20;;;19.90;50.21;101569.50;5048713;28;20489;-75
2022/06/11 00:04:30;;;;;;;7.20;4.13;;;19.70;8.20;;;19.89;50.31;101569.78;5033812;28;20511;-75
2022/06/11 00:07:06;;;;;;;4.57;4.07;;;19.70;8.40;;;19.89;50.31;101561.53;5038538;28;20448;-75
2022/06/11 00:09:36;;;;;;;6.80;4.20;;;19.70;8.50;;;19.88;50.49;101570.84;5030559;28;20428;-73
2022/06/11 00:12:07;;;;;;;5.27;3.80;;;19.70;8.60;;;19.90;50.57;101563.19;5039108;28;20888;-75
2022/06/11 00:14:36;;;;;;;7.23;4.50;;;19.70;9.10;;;19.92;50.88;101569.28;5032342;28;20909;-75
2022/06/11 00:17:09;;;;;;;7.80;5.30;;;19.70;9.10;;;19.94;50.93;101569.88;5018022;28;20811;-76
2022/06/11 00:19:38;;;;;;;5.37;4.00;;;19.80;9.40;;;19.98;50.92;101570.19;5013028;28;20514;-74
2022/06/11 00:22:10;;;;;;;4.97;4.60;;;19.80;9.80;;;19.95;51.13;101574.25;5012037;28;21029;-75
2022/06/11 00:24:39;;;;;;;5.23;4.83;;;19.80;9.70;;;19.93;51.00;101573.69;5028027;28;20854;-74
2022/06/11 00:27:10;;;;;;;4.50;4.03;;;19.80;9.90;;;19.91;51.31;101576.66;5018654;28;20513;-75
2022/06/11 00:29:42;;;;;;;6.27;5.10;;;19.70;10.10;;;19.90;51.44;101579.66;5036215;23;20422;-67
2022/06/11 00:32:13;;;;;;;8.57;7.70;;;19.70;10.30;;;19.90;51.46;101582.41;4997982;28;20441;-69
2022/06/11 00:34:43;;;;;;;5.87;4.97;;;19.70;10.50;;;19.91;51.67;101575.84;4994487;28;20512;-69
2022/06/11 00:37:18;;;;;;;7.30;6.53;;;19.70;10.70;;;19.92;51.58;101574.75;4985531;28;20895;-67
2022/06/11 00:39:47;;;;;;;9.50;5.83;;;19.80;11.00;;;19.87;51.75;101574.66;4972245;28;20842;-67
2022/06/11 00:42:26;;;;;;;4.67;4.27;;;19.70;11.00;;;19.84;52.00;101576.00;4968955;28;20413;-67
2022/06/11 00:45:29;;;;;;;4.83;4.33;;;19.70;11.30;;;19.83;52.00;101573.50;5018385;22;20458;-72
2022/06/11 00:48:04;;;;;;;8.80;4.83;;;19.70;11.60;;;19.84;52.18;101575.19;5028179;28;20873;-71
2022/06/11 00:50:39;;;;;;;5.10;4.57;;;19.70;11.80;;;19.81;52.00;101570.16;5031213;28;20444;-71
2022/06/11 00:53:17;;;;;;;6.60;5.20;;;19.70;12.50;;;19.79;52.16;101569.59;5009996;28;20532;-71
2022/06/11 00:55:50;;;;;;;5.87;5.00;;;19.70;12.10;;;19.78;52.11;101571.50;5010971;28;20765;-71
2022/06/11 00:58:23;;;;;;;7.50;6.10;;;19.70;12.40;;;19.88;52.60;101563.44;5011718;28;20400;-71
2022/06/11 01:00:56;;;;;;;5.47;4.97;;;19.80;12.90;;;19.95;52.12;101558.59;5011415;28;20412;-72
2022/06/11 01:03:31;;;;;;;6.33;5.77;;;19.80;12.70;;;19.99;52.07;101563.63;5006331;28;20415;-73
2022/06/11 01:06:16;;;;;;;5.67;5.17;;;19.90;12.70;;;19.93;52.26;101560.78;5011681;28;20969;-71
2022/06/11 01:09:01;;;;;;;6.73;5.70;;;19.90;12.80;;;19.83;52.62;101559.78;5011985;28;20815;-72
2022/06/11 01:12:06;;;;;;;6.50;5.57;;;19.80;13.20;;;19.71;53.06;101567.22;5012094;28;20447;-72
2022/06/11 01:14:49;;;;;;;5.53;5.03;;;19.60;13.70;;;19.59;53.82;101558.22;5010135;28;20993;-73
2022/06/11 01:17:32;;;;;;;10.30;5.03;;;19.50;14.70;;;19.48;53.74;101560.75;5004891;28;20471;-73
2022/06/11 01:20:39;;;;;;;9.90;5.73;;;19.40;15.30;;;19.42;53.96;101549.88;5012205;28;20524;-70
2022/06/11 01:24:12;;;;;;;7.03;5.17;;;19.30;16.10;;;19.30;54.38;101552.69;5007182;28;20423;-72
2022/06/11 01:27:42;;;;;;;5.20;4.70;;;19.20;16.70;;;19.22;54.64;101544.84;5011187;28;20505;-71
2022/06/11 01:30:19;;;;;;;5.57;4.17;;;19.10;17.30;;;19.29;54.64;101544.69;5009526;28;20428;-71
2022/06/11 01:32:59;;;;;;;6.67;5.57;;;19.20;18.30;;;19.23;54.50;101541.00;5011001;28;20874;-72
2022/06/11 01:35:47;;;;;;;5.87;5.37;;;19.10;18.20;;;19.21;54.33;101545.09;4993442;28;20431;-71
2022/06/11 01:38:27;;;;;;;5.53;4.93;;;19.10;17.70;;;19.25;53.89;101538.03;5011260;28;20845;-71
2022/06/11 01:41:20;;;;;;;4.73;4.33;;;19.10;17.50;;;19.35;53.49;101539.06;5010263;28;20408;-72
2022/06/11 01:43:53;;;;;;;5.93;4.43;;;19.20;17.20;;;19.31;53.39;101537.91;4998773;28;20451;-71
2022/06/11 01:46:30;;;;;;;6.40;4.30;;;19.20;16.90;;;19.20;53.92;101529.72;5010581;28;20471;-71
2022/06/11 01:49:03;;;;;;;8.27;4.30;;;19.10;17.10;;;19.18;53.81;101538.16;4992599;28;20972;-71
2022/06/11 01:51:50;;;;;;;7.33;4.60;;;19.10;17.30;;;19.28;53.65;101532.06;5010003;28;20456;-71
2022/06/11 01:54:36;;;;;;;6.10;5.50;;;19.20;17.40;;;19.24;53.97;101542.69;5010223;28;20777;-71
2022/06/11 01:57:42;;;;;;;5.73;5.20;;;19.20;17.50;;;19.28;53.68;101543.03;5010420;28;20473;-72
2022/06/11 02:00:20;;;;;;;7.80;4.50;;;19.20;17.20;;;19.13;54.11;101546.28;5005675;28;20506;-72
2022/06/11 02:03:24;;;;;;;7.23;5.50;;;19.10;17.40;;;18.98;54.62;101545.97;5011160;28;20526;-72
2022/06/11 02:06:39;;;;;;;5.27;4.73;;;19.00;18.50;;;18.86;55.20;101545.19;5004748;28;20459;-72
2022/06/11 02:09:26;;;;;;;5.80;4.93;;;18.80;19.80;;;18.80;55.63;101552.44;5004614;28;20431;-72
2022/06/11 02:12:11;;;;;;;5.17;4.73;;;18.80;20.60;;;18.78;55.43;101548.28;5010297;28;20424;-71
2022/06/11 02:14:51;;;;;;;8.10;4.50;;;18.70;20.90;;;18.79;55.07;101548.03;5009365;28;20437;-71
2022/06/11 02:17:26;;;;;;;5.03;4.60;;;18.70;20.70;;;18.77;55.59;101550.19;5008110;28;20432;-71
2022/06/11 02:20:06;;;;;;;9.53;4.97;;;18.70;21.70;;;18.71;55.81;101542.94;4987848;28;20464;-71
2022/06/11 02:22:45;;;;;;;6.17;4.70;;;18.60;22.50;;;18.72;55.50;101549.25;4992262;28;20473;-71
2022/06/11 02:25:21;;;;;;;5.90;4.90;;;18.60;22.40;;;18.71;55.43;101542.09;5009935;28;20802;-71
2022/06/11 02:27:54;;;;;;;6.13;5.50;;;18.60;22.50;;;18.71;55.84;101553.06;5008437;28;20444;-70
2022/06/11 02:30:28;;;;;;;5.30;4.80;;;18.60;22.90;;;18.70;55.91;101546.75;5006466;28;20560;-70
2022/06/11 02:32:58;;;;;;;5.90;4.37;;;18.60;23.50;;;18.69;55.91;101556.03;5004081;28;20453;-72
2022/06/11 02:35:38;;;;;;;4.97;4.40;;;18.60;23.60;;;18.63;56.14;101546.88;5009847;28;20444;-71
2022/06/11 02:38:12;;;;;;;7.73;4.50;;;18.60;24.40;;;18.63;56.05;101546.03;5010159;28;20524;-70
2022/06/11 02:40:46;;;;;;;5.53;4.97;;;18.50;24.90;;;18.64;56.36;101548.53;5009790;28;20447;-72
2022/06/11 02:43:15;;;;;;;5.97;4.87;;;18.50;26.00;;;18.61;56.05;101551.75;5009866;28;20590;-70
2022/06/11 02:45:45;;;;;;;6.63;5.17;;;18.50;25.20;;;18.63;56.20;101546.88;4991989;28;20505;-70
2022/06/11 02:48:15;;;;;;;5.20;4.70;;;18.50;25.60;;;18.65;55.94;101555.69;5010167;28;20444;-72
2022/06/11 02:50:47;;;;;;;4.97;4.57;;;18.50;25.00;;;18.73;55.34;101550.94;5005634;28;20469;-72
2022/06/11 02:53:17;;;;;;;5.20;4.70;;;18.60;24.60;;;18.75;55.38;101548.75;5010075;28;20424;-72
2022/06/11 02:55:47;;;;;;;6.07;4.90;;;18.60;24.60;;;18.71;55.31;101548.41;5009893;28;20415;-73
2022/06/11 02:58:16;;;;;;;6.83;4.97;;;18.60;24.30;;;18.69;55.22;101555.22;5009741;28;20415;-71
2022/06/11 03:00:48;;;;;;;5.00;4.53;;;18.60;24.10;;;18.71;55.69;101558.53;5009359;28;20448;-72
2022/06/11 03:03:17;;;;;;;6.10;4.50;;;18.60;25.20;;;18.76;55.57;101555.91;5009583;28;20442;-72
2022/06/11 03:05:48;;;;;;;8.70;5.40;;;18.60;25.30;;;18.80;55.49;101557.09;5009348;28;20460;-72
2022/06/11 03:08:16;;;;;;;4.87;4.37;;;18.60;25.50;;;18.84;55.60;101556.38;5009348;28;20519;-71
2022/06/11 03:10:45;;;;;;;5.73;5.23;;;18.60;25.60;;;18.89;55.32;101555.66;5009862;28;20468;-72
2022/06/11 03:13:18;;;;;;;6.23;5.17;;;18.70;25.40;;;18.93;55.02;101557.66;5003911;28;20491;-72
2022/06/11 03:15:47;;;;;;;5.63;5.13;;;18.70;25.00;;;19.00;54.95;101558.38;5007572;28;20751;-73
2022/06/11 03:18:16;;;;;;;6.67;4.97;;;18.80;24.50;;;19.13;54.09;101557.28;5004638;28;20500;-72
2022/06/11 03:20:47;;;;;;;9.43;5.00;;;18.90;23.40;;;19.19;54.05;101556.31;4980227;28;20441;-72
2022/06/11 03:23:16;;;;;;;4.67;4.27;;;19.00;22.60;;;19.24;53.84;101553.66;5010178;28;20493;-72
2022/06/11 03:25:47;;;;;;;4.60;4.20;;;19.00;22.30;;;19.38;53.47;101556.94;5009036;28;20457;-72
2022/06/11 03:28:20;;;;;;;6.70;5.10;;;19.10;21.70;;;19.49;53.11;101567.94;5012979;28;20503;-72
2022/06/11 03:30:49;;;;;;;5.60;5.10;;;19.30;21.30;;;19.52;53.20;101569.34;4995390;28;20420;-71
2022/06/11 03:33:18;;;;;;;4.73;4.30;;;19.30;20.80;;;19.52;52.96;101567.44;5013069;28;20564;-71
2022/06/11 03:35:49;;;;;;;9.80;4.30;;;19.30;20.60;;;19.69;52.78;101569.41;4995169;28;20898;-72
2022/06/11 03:38:20;;;;;;;6.30;4.70;;;19.40;20.30;;;20.20;51.74;101569.19;5013323;28;20803;-72
2022/06/11 03:40:50;;;;;;;5.10;4.60;;;19.60;19.90;;;20.69;50.70;101561.19;5012824;28;20520;-72
2022/06/11 03:43:19;;;;;;;5.77;4.73;;;19.80;18.90;;;20.71;50.53;101570.03;5013173;28;20411;-72
2022/06/11 03:45:48;;;;;;;4.37;3.97;;;20.10;17.90;;;20.58;50.34;101570.38;4995116;28;20438;-72
2022/06/11 03:48:16;;;;;;;5.30;4.23;;;20.20;17.30;;;20.43;50.59;101579.22;5009422;28;20469;-72
2022/06/11 03:50:47;;;;;;;6.80;4.80;;;20.10;17.20;;;20.35;50.98;101580.47;5010415;28;20510;-72
2022/06/11 03:53:17;;;;;;;5.70;4.07;;;20.10;16.80;;;20.27;51.15;101564.38;5013092;28;20453;-72
2022/06/11 03:55:46;;;;;;;8.30;4.70;;;20.00;17.20;;;20.25;51.38;101566.53;5013019;28;20418;-72
2022/06/11 03:58:18;;;;;;;4.40;4.00;;;20.00;17.30;;;20.22;51.91;101572.53;5012885;28;20444;-72
2022/06/11 04:03:37;;;;;;;4.23;3.83;;;20.00;18.10;;;20.22;51.60;101580.78;5015443;28;20422;-72
2022/06/11 04:06:09;;;;;;;4.53;4.23;;;20.00;17.40;;;20.25;51.83;101577.53;5013021;28;20404;-71
2022/06/11 04:08:40;;;;;;;4.83;4.33;;;20.10;17.50;;;20.23;51.86;101576.97;5012335;28;20499;-71
2022/06/11 04:11:10;;;;;;;4.80;4.40;;;20.00;17.50;;;20.23;51.98;101579.72;5012345;28;20427;-70
2022/06/11 04:13:42;;;;;;;4.63;4.23;;;20.00;17.60;;;20.26;51.95;101579.19;5011956;28;20446;-71
2022/06/11 04:16:27;;;;;;;4.07;3.77;;;20.10;17.70;;;20.30;51.83;101577.66;5011966;28;20426;-71
2022/06/11 04:18:58;;;;;;;7.77;4.27;;;20.10;17.70;;;20.34;51.91;101577.97;5005883;28;20517;-72
2022/06/11 04:21:31;;;;;;;6.33;4.30;;;20.10;17.60;;;20.45;51.25;101581.72;5005661;28;20439;-70
2022/06/11 04:24:03;;;;;;;5.63;4.00;;;20.20;17.40;;;20.53;51.49;101584.03;5007972;28;20425;-72
2022/06/11 04:26:36;;;;;;;4.27;3.87;;;20.30;17.20;;;20.56;51.51;101584.38;5011867;28;20955;-70
2022/06/11 04:29:09;;;;;;;4.10;3.73;;;20.30;17.30;;;20.66;51.23;101583.72;5012241;28;20439;-71
2022/06/11 04:31:39;;;;;;;4.70;3.37;;;20.30;17.30;;;20.74;51.32;101586.03;4997351;28;20513;-71
2022/06/11 04:34:11;;;;;;;5.57;4.40;;;20.50;17.40;;;20.77;51.36;101583.59;5012262;28;20414;-71
2022/06/11 04:36:45;;;;;;;4.60;4.20;;;20.50;17.10;;;20.95;50.78;101587.16;5009978;28;20473;-71
2022/06/11 04:39:18;;;;;;;4.63;4.20;;;20.60;16.70;;;21.05;50.55;101585.38;5012597;28;20407;-71
2022/06/11 04:41:47;;;;;;;7.40;3.53;;;20.70;16.10;;;21.04;50.66;101585.63;5012360;28;20987;-71
2022/06/11 04:44:16;;;;;;;5.80;4.60;;;20.70;16.10;;;21.16;51.03;101587.19;5007573;28;20481;-72
2022/06/11 04:46:45;;;;;;;4.50;3.23;;;20.80;16.70;;;21.28;49.94;101576.06;4999567;28;21026;-72
2022/06/11 04:49:16;;;;;;;9.03;3.90;;;20.80;15.60;;;21.34;50.04;101586.03;4999455;28;20411;-72
2022/06/11 04:51:47;;;;;;;4.60;3.40;;;20.90;15.30;;;21.55;49.50;101581.59;4992635;28;21088;-69
2022/06/11 04:54:16;;;;;;;6.27;3.80;;;21.10;14.90;;;21.54;49.27;101582.69;5002631;28;20412;-71
2022/06/11 04:56:46;;;;;;;5.10;4.20;;;21.20;14.20;;;21.68;49.12;101583.97;4993916;28;20503;-71
2022/06/11 04:59:14;;;;;;;4.23;3.27;;;21.20;14.90;;;21.75;48.62;101587.31;4987773;28;20449;-72
2022/06/11 05:01:44;;;;;;;4.03;3.73;;;21.30;13.80;;;21.73;48.85;101584.00;4990109;28;20452;-71
2022/06/11 05:04:16;;;;;;;6.33;3.43;;;21.30;13.50;;;21.92;48.30;101576.22;5011548;28;20408;-71
2022/06/11 05:06:54;;;;;;;5.23;4.53;;;21.40;12.90;;;21.82;48.68;101576.94;5006986;28;20418;-71
2022/06/11 05:09:28;;;;;;;4.90;3.90;;;21.40;13.30;;;21.95;47.87;101584.81;5010462;28;20859;-71
2022/06/11 05:11:57;;;;;;;4.10;3.70;;;21.50;12.60;;;21.92;48.71;101585.31;5014319;28;20801;-71
2022/06/11 05:14:27;;;;;;;5.10;3.30;;;21.60;13.00;;;21.89;48.68;101591.31;5008033;28;20419;-71
2022/06/11 05:16:58;;;;;;;3.60;3.10;;;21.60;12.80;;;22.03;48.37;101592.59;5006574;28;20466;-71
2022/06/11 05:19:28;;;;;;;3.20;2.90;;;21.70;12.40;;;22.02;47.89;101595.63;5003076;28;20432;-70
2022/06/11 05:21:59;;;;;;;4.03;3.40;;;21.60;11.80;;;22.20;48.08;101589.72;5001413;28;20435;-70
2022/06/11 05:24:29;;;;;;;4.37;3.00;;;21.80;12.20;;;22.32;47.81;101597.78;5001985;28;20917;-70
2022/06/11 05:27:03;;;;;;;4.20;3.80;;;21.90;11.70;;;22.22;47.96;101598.53;5002761;28;20420;-72
2022/06/11 05:29:37;;;;;;;6.37;3.40;;;21.80;11.80;;;22.40;47.63;101600.09;5004290;28;20465;-71
2022/06/11 05:32:07;;;;;;;3.50;3.20;;;21.80;11.50;;;22.70;47.84;101605.00;4988139;28;20467;-72
2022/06/11 05:34:36;;;;;;;3.30;3.00;;;22.10;12.20;;;22.83;47.31;101601.81;4999260;28;20453;-72
2022/06/11 05:37:06;;;;;;;5.50;4.00;;;22.20;11.70;;;23.04;46.85;101605.53;5004522;28;20469;-71
2022/06/11 05:39:41;;;;;;;5.00;3.37;;;22.40;11.30;;;23.10;47.06;101612.72;4987720;28;20433;-71
2022/06/11 05:42:11;;;;;;;3.73;3.43;;;22.50;11.00;;;23.13;46.36;101603.91;4997570;28;20469;-71
2022/06/11 05:44:40;;;;;;;3.30;3.00;;;22.50;10.40;;;23.09;46.01;101602.78;5000026;28;20448;-72
2022/06/11 05:47:13;;;;;;;5.20;3.23;;;22.50;9.70;;;23.26;46.12;101603.41;5010983;28;20444;-71
2022/06/11 05:49:47;;;;;;;4.57;3.73;;;22.60;9.80;;;23.18;46.31;101601.19;5010499;28;20408;-73
2022/06/11 05:52:22;;;;;;;3.83;3.10;;;22.50;10.10;;;23.30;46.37;101602.59;5010873;28;20451;-71
2022/06/11 05:54:53;;;;;;;5.07;4.60;;;22.50;10.10;;;23.63;45.87;101604.13;5011015;28;20621;-72
2022/06/11 05:57:28;;;;;;;4.00;3.20;;;22.90;10.10;;;23.62;45.46;101602.47;5010844;28;20516;-71
2022/06/11 06:00:02;;;;;;;5.03;3.27;;;23.00;9.00;;;23.56;45.51;101605.50;4994048;28;20445;-71
2022/06/11 06:02:42;;;;;;;8.70;4.30;;;22.80;9.00;;;23.55;44.72;101601.91;5005241;28;20420;-71
2022/06/11 06:05:17;;;;;;;4.37;3.10;;;22.80;7.90;;;23.76;43.88;101602.78;5010778;28;20976;-71
2022/06/11 06:07:54;;;;;;;3.73;3.43;;;22.90;7.50;;;23.91;43.46;101608.34;5010600;28;20439;-71
2022/06/11 06:10:24;;;;;;;5.10;3.37;;;23.10;6.50;;;23.92;43.29;101604.47;5010310;28;20838;-72
2022/06/11 06:12:53;;;;;;;3.97;3.57;;;23.10;5.80;;;23.86;43.85;101610.28;5010538;28;20507;-72
2022/06/11 06:15:27;;;;;;;6.43;4.83;;;23.20;6.30;;;24.04;43.98;101609.75;5008945;28;20982;-72
2022/06/11 06:17:56;;;;;;;4.40;3.57;;;23.40;6.20;;;24.02;43.85;101609.19;5010200;28;20411;-71
2022/06/11 06:20:25;;;;;;;4.23;3.83;;;23.50;6.00;;;23.88;44.29;101606.13;5010664;28;20490;-71
2022/06/11 06:22:56;;;;;;;4.13;3.73;;;23.40;6.10;;;23.84;44.55;101610.53;5007765;28;20464;-71
2022/06/11 06:25:25;;;;;;;4.00;3.70;;;23.40;6.30;;;23.87;44.36;101598.91;4994911;28;20416;-71
2022/06/11 06:27:54;;;;;;;3.63;2.70;;;23.20;6.50;;;23.97;43.79;101598.09;5010430;28;20496;-72
2022/06/11 06:30:23;;;;;;;3.47;3.17;;;23.30;5.80;;;24.03;43.28;101597.00;5032611;22;20460;-71
2022/06/11 06:32:51;;;;;;;3.87;3.57;;;23.30;5.30;;;24.18;43.18;101608.97;5080027;28;20511;-71
2022/06/11 06:35:21;;;;;;;3.90;3.23;;;23.40;5.00;;;24.34;43.04;101615.34;5069204;28;20779;-73
2022/06/11 06:37:49;;;;;;;4.40;4.03;;;23.60;5.00;;;24.44;43.14;101608.97;5064300;28;20946;-72
2022/06/11 06:40:21;;;;;;;5.60;4.03;;;23.80;5.00;;;24.41;43.41;101607.56;5058948;28;20546;-71
2022/06/11 06:43:03;;;;;;;7.30;6.43;;;23.70;4.70;;;24.36;42.67;101607.56;5060471;28;21041;-68
2022/06/11 06:45:33;;;;;;;4.53;3.40;;;23.70;4.30;;;24.33;42.66;101610.91;5012537;28;20456;-71
2022/06/11 06:48:02;;;;;;;4.00;3.70;;;23.80;3.70;;;24.23;43.29;101613.66;5017944;28;20469;-71
2022/06/11 06:50:31;;;;;;;5.90;4.70;;;23.70;4.20;;;24.39;42.82;101612.56;5012081;28;20437;-71
2022/06/11 06:53:00;;;;;;;7.27;4.00;;;23.80;3.90;;;24.38;42.93;101605.38;5014203;28;20413;-71
2022/06/11 06:55:30;;;;;;;4.20;3.40;;;23.90;3.80;;;24.45;43.55;101610.59;5004812;28;20460;-72
2022/06/11 06:57:59;;;;;;;4.30;3.87;;;23.70;4.80;;;24.45;43.40;101611.44;5005489;28;20428;-72
2022/06/11 07:00:28;;;;;;;5.47;3.40;;;23.60;5.00;;;24.45;43.33;101616.97;5009098;28;20437;-71
2022/06/11 07:02:58;;;;;;;3.60;3.30;;;23.80;4.60;;;24.47;43.48;101614.78;5008240;28;20419;-72
2022/06/11 07:05:27;;;;;;;4.07;3.70;;;23.80;4.90;;;24.27;43.71;101614.75;5005073;28;20440;-69
2022/06/11 07:07:56;;;;;;;5.00;4.60;;;23.70;4.80;;;24.46;43.77;101613.09;5011001;28;20445;-71
2022/06/11 07:10:27;;;;;;;4.40;4.00;;;23.70;5.20;;;24.46;43.96;101606.75;5011200;28;20425;-71
2022/06/11 07:12:57;;;;;;;5.33;3.50;;;23.70;5.50;;;24.66;43.25;101609.50;5011550;28;20938;-72
2022/06/11 07:15:27;;;;;;;5.00;3.50;;;23.90;5.00;;;24.66;43.52;101607.56;5007913;28;20445;-72
2022/06/11 07:18:05;;;;;;;5.13;4.47;;;23.80;5.10;;;24.79;43.64;101608.91;5007754;28;20449;-71
2022/06/11 07:20:37;;;;;;;4.93;3.30;;;24.00;5.30;;;24.89;43.00;101597.00;5005805;28;20507;-71
2022/06/11 07:23:13;;;;;;;3.47;2.77;;;24.10;4.50;;;24.99;42.58;101606.13;5011212;28;20531;-72
2022/06/11 07:25:45;;;;;;;3.83;3.43;;;24.10;4.40;;;25.00;42.47;101599.47;5015584;28;20453;-72
2022/06/11 07:28:23;;;;;;;4.00;3.70;;;24.20;3.90;;;25.19;42.73;101599.69;5017821;28;20508;-71
2022/06/11 07:30:52;;;;;;;5.10;3.47;;;24.20;4.20;;;25.28;42.32;101598.00;5011830;28;20419;-72
2022/06/11 07:33:26;;;;;;;4.10;3.77;;;24.50;3.90;;;25.60;42.17;101596.78;5009480;28;20431;-72
2022/06/11 07:35:56;;;;;;;4.87;4.40;;;24.70;4.00;;;25.85;41.65;101596.63;5007484;28;20420;-72
2022/06/11 07:38:30;;;;;;;3.80;3.50;;;24.80;3.40;;;26.01;41.65;101595.41;5006804;28;20441;-70
2022/06/11 07:40:58;;;;;;;5.60;4.70;;;25.00;3.40;;;26.27;40.87;101599.69;5004235;28;20437;-71
2022/06/11 07:43:29;;;;;;;3.90;3.60;;;25.30;2.40;;;26.31;40.23;101592.41;5001833;28;20511;-71
2022/06/11 07:45:58;;;;;;;3.97;3.50;;;25.60;1.60;;;26.41;39.79;101593.44;5002261;28;20437;-71
2022/06/11 07:48:27;;;;;;;3.90;3.53;;;25.80;1.00;;;26.51;40.10;101588.63;5008773;28;20838;-71
2022/06/11 07:50:56;;;;;;;3.93;3.53;;;25.90;1.00;;;26.59;39.51;101595.50;5010725;28;20532;-70
2022/06/11 07:53:26;;;;;;;3.50;3.20;;;25.80;1.00;;;26.56;39.60;101590.53;4999274;28;20459;-72
2022/06/11 07:55:56;;;;;;;4.40;4.00;;;25.80;1.00;;;26.65;39.51;101594.31;5002721;28;20442;-72
2022/06/11 07:58:30;;;;;;;4.00;3.60;;;25.70;1.00;;;26.88;39.17;101593.56;5010162;28;20961;-70
2022/06/11 08:01:00;;;;;;;4.37;4.00;;;25.90;1.00;;;26.87;38.60;101597.44;5005821;28;21023;-71
2022/06/11 08:03:31;;;;;;;6.90;3.90;;;25.90;1.00;;;26.74;38.77;101592.56;5004500;28;20471;-73
2022/06/11 08:06:02;;;;;;;4.57;3.63;;;26.20;1.00;;;26.92;38.68;101597.38;5007593;28;20553;-73
2022/06/11 08:08:31;;;;;;;5.23;4.20;;;26.30;1.00;;;27.11;37.98;101594.69;5010410;28;20445;-73
2022/06/11 08:11:01;;;;;;;6.10;3.20;;;26.30;1.00;;;27.29;37.73;101593.09;5013327;28;20451;-73
2022/06/11 08:13:31;;;;;;;4.70;3.63;;;26.30;1.00;;;27.04;38.60;101603.38;5003146;28;20472;-70
2022/06/11 08:16:02;;;;;;;3.70;3.23;;;26.50;1.00;;;27.19;37.74;101594.88;5005976;28;20482;-72
2022/06/11 08:18:33;;;;;;;3.20;2.90;;;26.40;1.00;;;27.28;37.77;101588.66;5001356;28;20440;-72
2022/06/11 08:21:02;;;;;;;3.57;2.50;;;26.50;1.00;;;27.72;36.49;101591.97;5003325;28;20876;-72
2022/06/11 08:23:31;;;;;;;3.77;2.73;;;26.70;1.00;;;28.01;36.38;101587.06;5005942;28;20480;-72
2022/06/11 08:26:01;;;;;;;3.63;3.20;;;27.20;1.00;;;28.33;36.71;101591.84;5011724;28;20424;-72
2022/06/11 08:28:31;;;;;;;4.77;2.87;;;27.40;1.00;;;28.05;36.05;101590.91;5004161;28;20556;-70
2022/06/11 08:31:04;;;;;;;3.73;3.40;;;27.40;1.00;;;28.06;35.97;101580.59;5009571;28;20483;-71
2022/06/11 08:33:34;;;;;;;13.00;3.30;;;27.20;1.00;;;28.33;35.76;101596.59;4997385;28;20453;-72
2022/06/11 08:36:08;;;;;;;3.60;2.90;;;27.40;1.00;;;28.09;35.74;101580.81;5008476;28;20444;-71
2022/06/11 08:38:37;;;;;;;3.60;3.20;;;27.30;1.00;;;28.42;35.93;101590.03;5013125;28;20958;-72
2022/06/11 08:41:15;;;;;;;4.90;2.97;;;27.50;1.00;;;28.67;34.72;101591.53;5008126;28;20472;-71
2022/06/11 08:44:00;;;;;;;6.10;3.10;;;27.80;1.00;;;28.52;35.63;101592.63;5002661;28;20458;-72
2022/06/11 08:46:34;;;;;;;3.20;2.90;;;27.80;1.00;;;28.52;35.48;101592.63;5004085;28;20423;-71
2022/06/11 08:49:13;;;;;;;6.40;2.93;;;27.70;1.00;;;28.53;35.21;101585.09;5004888;28;20478;-70
2022/06/11 08:51:49;;;;;;;3.30;2.60;;;27.70;1.00;;;28.58;34.99;101590.56;4994806;28;20516;-72
2022/06/11 08:54:25;;;;;;;3.23;2.63;;;27.70;1.00;;;28.79;34.37;101589.13;5006900;28;20472;-72
2022/06/11 08:57:06;;;;;;;3.07;2.53;;;27.80;1.00;;;28.59;34.44;101583.06;5012924;28;20865;-72
2022/06/11 08:59:57;;;;;;;2.87;2.07;;;28.00;1.00;;;28.91;33.78;101589.41;5002321;28;20473;-70
2022/06/11 09:02:46;;;;;;;3.03;2.83;;;27.90;1.00;;;29.47;33.13;101582.72;5002494;28;20449;-72
2022/06/11 09:05:37;;;;;;;6.10;5.00;;;28.50;1.00;;;30.01;33.15;101570.63;5005902;28;20463;-72
2022/06/11 09:08:41;;;;;;;2.40;2.20;;;29.10;1.00;;;29.87;32.68;101580.94;5008399;28;20952;-70
2022/06/11 09:11:26;;;;;;;2.93;2.63;;;29.10;1.00;;;30.07;32.15;101574.91;5009125;28;20471;-71
2022/06/11 09:14:34;;;;;;;3.57;3.13;;;29.20;1.00;;;29.70;33.11;101580.81;5010043;28;20443;-71
2022/06/11 09:17:51;;;;;;;2.80;2.30;;;29.30;1.00;;;29.66;33.44;101575.03;5006083;28;20438;-71
2022/06/11 09:20:38;;;;;;;4.97;3.17;;;28.80;1.00;;;29.96;32.42;101575.50;5011786;28;20537;-71
2022/06/11 09:23:49;;;;;;;5.67;3.83;;;29.10;1.00;;;29.92;32.81;101582.84;5006142;28;20995;-70
2022/06/11 09:26:38;;;;;;;6.10;3.63;;;29.20;1.00;;;29.68;33.23;101577.50;5010586;28;20444;-72
2022/06/11 09:29:15;;;;;;;3.53;3.07;;;28.90;1.00;;;29.92;33.31;101571.69;5007978;28;20502;-71
2022/06/11 09:31:50;;;;;;;4.03;3.10;;;28.80;1.00;;;30.02;32.78;101571.41;5001551;28;20971;-73
2022/06/11 09:34:35;;;;;;;3.77;3.40;;;28.90;1.00;;;30.68;32.16;101567.78;4999546;28;20822;-72
2022/06/11 09:37:13;;;;;;;3.77;3.07;;;29.40;1.00;;;31.27;30.69;101563.59;5011683;28;20515;-71
2022/06/11 09:39:51;;;;;;;3.10;2.80;;;29.90;1.00;;;31.08;31.15;101565.00;5008312;28;20433;-71
2022/06/11 09:42:54;;;;;;;4.50;2.90;;;30.20;1.00;;;30.47;31.42;101567.50;5011282;28;20923;-72
2022/06/11 09:45:33;;;;;;;3.70;2.57;;;30.10;1.00;;;29.57;32.39;101576.09;5010448;28;20881;-72
2022/06/11 09:48:28;;;;;;;3.20;2.20;;;29.50;1.00;;;29.60;32.90;101570.72;5011578;28;20472;-72
2022/06/11 09:51:09;;;;;;;3.70;2.83;;;29.00;1.00;;;29.61;33.31;101572.38;5009581;28;20465;-72
2022/06/11 09:54:05;;;;;;;5.23;2.83;;;29.00;1.00;;;30.21;31.90;101567.28;5009983;28;20465;-70
2022/06/11 09:56:50;;;;;;;2.60;2.10;;;29.30;1.00;;;30.05;31.69;101559.63;5008510;28;20872;-71
2022/06/11 09:59:33;;;;;;;3.53;1.80;;;29.30;1.00;;;30.38;31.71;101557.38;5012126;28;20445;-73
2022/06/11 10:02:18;;;;;;;2.93;2.63;;;29.30;1.00;;;30.75;31.17;101556.94;5010240;28;20441;-72
2022/06/11 10:04:50;;;;;;;3.87;2.03;;;29.70;1.00;;;30.43;31.29;101554.47;5009095;28;20456;-72
2022/06/11 10:07:28;;;;;;;2.40;2.03;;;29.70;1.00;;;30.79;30.88;101559.94;5008106;28;20504;-71
2022/06/11 10:10:05;;;;;;;2.20;1.90;;;30.00;1.00;;;30.71;30.68;101555.94;5011435;28;20535;-72
2022/06/11 10:12:41;;;;;;;2.40;2.13;;;29.90;1.00;;;30.58;31.00;101565.25;5007159;28;20440;-73
2022/06/11 10:15:23;;;;;;;3.43;3.13;;;30.00;1.00;;;30.26;31.03;101557.97;5007047;28;20511;-70
2022/06/11 10:18:00;;;;;;;3.07;2.03;;;29.80;1.00;;;30.23;30.89;101566.97;5005088;28;20508;-71
2022/06/11 10:20:35;;;;;;;4.10;1.80;;;29.70;1.00;;;30.28;31.00;101561.28;5014029;28;20433;-72
2022/06/11 10:23:17;;;;;;;3.97;2.00;;;29.70;1.00;;;30.29;31.09;101548.97;5013217;28;20473;-71
2022/06/11 10:25:55;;;;;;;1.63;1.43;;;29.80;1.00;;;30.13;31.42;101551.31;5020641;28;20468;-72
2022/06/11 10:28:32;;;;;;;2.33;2.07;;;29.70;1.00;;;29.24;32.73;101551.09;5016533;28;20440;-72
2022/06/11 10:31:09;;;;;;;4.13;2.50;;;29.20;1.00;;;28.86;33.22;101549.69;5016362;28;20481;-72
2022/06/11 10:33:51;;;;;;;3.57;1.80;;;28.80;1.00;;;28.89;33.46;101555.47;5014575;28;20556;-71
2022/06/11 10:36:27;;;;;;;2.07;1.87;;;28.60;1.00;;;29.33;32.64;101542.88;5016560;28;20799;-71
2022/06/11 10:39:07;;;;;;;3.07;2.10;;;28.80;1.00;;;29.35;32.77;101540.59;5011127;28;20775;-72
2022/06/11 10:41:46;;;;;;;3.40;2.00;;;28.70;1.00;;;30.06;32.00;101538.97;5007809;28;20438;-72
2022/06/11 10:44:37;;;;;;;3.40;1.80;;;29.30;1.00;;;29.92;31.43;101541.00;5011534;28;20575;-72
2022/06/11 10:47:19;;;;;;;3.30;1.60;;;29.30;1.00;;;29.88;31.52;101531.56;5003102;28;20411;-72
2022/06/11 10:49:56;;;;;;;3.80;2.00;;;29.40;1.00;;;29.45;32.11;101542.34;5011695;28;20449;-70
2022/06/11 10:52:41;;;;;;;3.40;2.10;;;29.20;1.00;;;29.35;32.33;101535.03;5003072;28;20468;-71
2022/06/11 10:55:19;;;;;;;3.93;3.23;;;28.90;1.00;;;29.14;32.17;101528.22;5003185;28;20508;-71